Terminal Aerodrome Forecast
Issued by NWS

Home | Current Version | Previous Version | Text Only | Print | Product List | Glossary On
Versions: 1 2 3 4 5 6 7 8 9 10 11 12 13 14 15 16 17 18 19
000
FTUS43 KOAX 192326
TAFCDR
TAF
KCDR 192326Z 2000/2024 VRB03KT P6SM SKC
     FM201200 26005KT P6SM BKN250
     FM202000 29009KT P6SM SKC=

USA.gov is the U.S. government's official web portal to all federal, state and local government web resources and services.